sensor_id;sensor_type;location;lat;lon;timestamp;P1;durP1;ratioP1;P2;durP2;ratioP2
73382;SDS011;61600;48.126;11.542;2023-04-25T00:02:18;2.85;;;1.58;;
73382;SDS011;61600;48.126;11.542;2023-04-25T00:04:44;2.83;;;1.60;;
73382;SDS011;61600;48.126;11.542;2023-04-25T00:07:11;4.07;;;1.40;;
73382;SDS011;61600;48.126;11.542;2023-04-25T00:09:38;2.55;;;1.38;;
73382;SDS011;61600;48.126;11.542;2023-04-25T00:12:03;2.72;;;1.38;;
73382;SDS011;61600;48.126;11.542;2023-04-25T00:14:29;3.60;;;1.95;;
73382;SDS011;61600;48.126;11.542;2023-04-25T00:16:55;2.78;;;1.50;;
73382;SDS011;61600;48.126;11.542;2023-04-25T00:19:21;4.43;;;1.70;;
73382;SDS011;61600;48.126;11.542;2023-04-25T00:21:47;3.85;;;1.42;;
73382;SDS011;61600;48.126;11.542;2023-04-25T00:24:13;2.40;;;1.35;;
73382;SDS011;61600;48.126;11.542;2023-04-25T00:26:38;3.03;;;1.42;;
73382;SDS011;61600;48.126;11.542;2023-04-25T00:29:04;3.33;;;1.48;;
73382;SDS011;61600;48.126;11.542;2023-04-25T00:31:30;3.78;;;1.20;;
73382;SDS011;61600;48.126;11.542;2023-04-25T00:33:56;2.28;;;1.52;;
73382;SDS011;61600;48.126;11.542;2023-04-25T00:36:21;3.20;;;1.60;;
73382;SDS011;61600;48.126;11.542;2023-04-25T00:38:47;3.60;;;1.30;;
73382;SDS011;61600;48.126;11.542;2023-04-25T00:41:13;2.83;;;1.55;;
73382;SDS011;61600;48.126;11.542;2023-04-25T00:43:39;4.28;;;1.63;;
73382;SDS011;61600;48.126;11.542;2023-04-25T00:46:05;3.75;;;1.40;;
73382;SDS011;61600;48.126;11.542;2023-04-25T00:48:35;1.95;;;1.38;;
73382;SDS011;61600;48.126;11.542;2023-04-25T00:51:01;2.95;;;1.58;;
73382;SDS011;61600;48.126;11.542;2023-04-25T00:53:27;2.55;;;1.50;;
73382;SDS011;61600;48.126;11.542;2023-04-25T00:55:53;5.45;;;1.60;;
73382;SDS011;61600;48.126;11.542;2023-04-25T00:58:20;5.18;;;1.75;;
73382;SDS011;61600;48.126;11.542;2023-04-25T01:00:47;4.75;;;1.40;;
73382;SDS011;61600;48.126;11.542;2023-04-25T01:03:15;4.85;;;1.50;;
73382;SDS011;61600;48.126;11.542;2023-04-25T01:05:42;4.20;;;1.50;;
73382;SDS011;61600;48.126;11.542;2023-04-25T01:08:09;3.13;;;1.52;;
73382;SDS011;61600;48.126;11.542;2023-04-25T01:10:35;2.92;;;1.40;;
73382;SDS011;61600;48.126;11.542;2023-04-25T01:13:01;3.00;;;1.73;;
73382;SDS011;61600;48.126;11.542;2023-04-25T01:15:27;1.83;;;1.10;;
73382;SDS011;61600;48.126;11.542;2023-04-25T01:17:53;2.33;;;1.58;;
73382;SDS011;61600;48.126;11.542;2023-04-25T01:20:21;2.60;;;1.42;;
73382;SDS011;61600;48.126;11.542;2023-04-25T01:22:48;4.47;;;1.65;;
73382;SDS011;61600;48.126;11.542;2023-04-25T01:25:15;2.15;;;1.23;;
73382;SDS011;61600;48.126;11.542;2023-04-25T01:27:42;2.90;;;1.40;;
73382;SDS011;61600;48.126;11.542;2023-04-25T01:30:08;2.50;;;1.70;;
73382;SDS011;61600;48.126;11.542;2023-04-25T01:32:34;4.25;;;1.70;;
73382;SDS011;61600;48.126;11.542;2023-04-25T01:35:07;4.75;;;1.70;;
73382;SDS011;61600;48.126;11.542;2023-04-25T01:37:36;3.85;;;1.73;;
73382;SDS011;61600;48.126;11.542;2023-04-25T01:40:02;3.00;;;1.65;;
73382;SDS011;61600;48.126;11.542;2023-04-25T01:42:31;3.55;;;1.75;;
73382;SDS011;61600;48.126;11.542;2023-04-25T01:44:57;5.10;;;1.80;;
73382;SDS011;61600;48.126;11.542;2023-04-25T01:47:23;4.68;;;2.05;;
73382;SDS011;61600;48.126;11.542;2023-04-25T01:49:49;7.47;;;2.05;;
73382;SDS011;61600;48.126;11.542;2023-04-25T01:52:15;4.47;;;1.48;;
73382;SDS011;61600;48.126;11.542;2023-04-25T01:54:41;2.88;;;1.48;;
73382;SDS011;61600;48.126;11.542;2023-04-25T01:57:09;3.65;;;1.60;;
73382;SDS011;61600;48.126;11.542;2023-04-25T01:59:36;2.67;;;1.27;;
73382;SDS011;61600;48.126;11.542;2023-04-25T02:02:02;3.85;;;1.90;;
73382;SDS011;61600;48.126;11.542;2023-04-25T02:04:31;3.35;;;1.67;;
73382;SDS011;61600;48.126;11.542;2023-04-25T02:06:57;2.50;;;1.52;;
73382;SDS011;61600;48.126;11.542;2023-04-25T02:09:23;3.85;;;2.03;;
73382;SDS011;61600;48.126;11.542;2023-04-25T02:11:48;3.10;;;1.40;;
73382;SDS011;61600;48.126;11.542;2023-04-25T02:14:14;4.82;;;1.65;;
73382;SDS011;61600;48.126;11.542;2023-04-25T02:16:43;2.63;;;1.73;;
73382;SDS011;61600;48.126;11.542;2023-04-25T02:19:10;2.85;;;1.48;;
73382;SDS011;61600;48.126;11.542;2023-04-25T02:21:39;4.68;;;1.60;;
73382;SDS011;61600;48.126;11.542;2023-04-25T02:24:08;5.55;;;1.90;;
73382;SDS011;61600;48.126;11.542;2023-04-25T02:26:34;4.32;;;1.55;;
73382;SDS011;61600;48.126;11.542;2023-04-25T02:29:00;2.75;;;1.58;;
73382;SDS011;61600;48.126;11.542;2023-04-25T02:31:26;3.55;;;1.60;;
73382;SDS011;61600;48.126;11.542;2023-04-25T02:33:52;2.55;;;1.52;;
73382;SDS011;61600;48.126;11.542;2023-04-25T02:36:17;4.22;;;1.88;;
73382;SDS011;61600;48.126;11.542;2023-04-25T02:38:43;2.92;;;1.52;;
73382;SDS011;61600;48.126;11.542;2023-04-25T02:41:09;4.57;;;1.65;;
73382;SDS011;61600;48.126;11.542;2023-04-25T02:43:35;3.58;;;1.70;;
73382;SDS011;61600;48.126;11.542;2023-04-25T02:46:00;10.35;;;2.72;;
73382;SDS011;61600;48.126;11.542;2023-04-25T02:48:26;3.35;;;1.40;;
73382;SDS011;61600;48.126;11.542;2023-04-25T02:50:53;5.05;;;2.20;;
73382;SDS011;61600;48.126;11.542;2023-04-25T02:53:19;3.55;;;1.63;;
73382;SDS011;61600;48.126;11.542;2023-04-25T02:55:45;3.22;;;1.80;;
73382;SDS011;61600;48.126;11.542;2023-04-25T02:58:10;2.42;;;1.58;;
73382;SDS011;61600;48.126;11.542;2023-04-25T03:00:36;4.07;;;1.77;;
73382;SDS011;61600;48.126;11.542;2023-04-25T03:03:10;4.00;;;1.80;;
73382;SDS011;61600;48.126;11.542;2023-04-25T03:05:36;4.10;;;1.80;;
73382;SDS011;61600;48.126;11.542;2023-04-25T03:08:02;5.90;;;1.70;;
73382;SDS011;61600;48.126;11.542;2023-04-25T03:10:34;4.03;;;1.95;;
73382;SDS011;61600;48.126;11.542;2023-04-25T03:13:00;2.22;;;1.50;;
73382;SDS011;61600;48.126;11.542;2023-04-25T03:15:25;2.80;;;1.50;;
73382;SDS011;61600;48.126;11.542;2023-04-25T03:17:51;7.40;;;2.33;;
73382;SDS011;61600;48.126;11.542;2023-04-25T03:20:17;5.50;;;2.10;;
73382;SDS011;61600;48.126;11.542;2023-04-25T03:22:43;2.92;;;1.60;;
73382;SDS011;61600;48.126;11.542;2023-04-25T03:25:09;3.88;;;1.60;;
73382;SDS011;61600;48.126;11.542;2023-04-25T03:27:35;2.85;;;1.60;;
73382;SDS011;61600;48.126;11.542;2023-04-25T03:30:01;3.05;;;1.20;;
73382;SDS011;61600;48.126;11.542;2023-04-25T03:32:27;2.83;;;1.60;;
73382;SDS011;61600;48.126;11.542;2023-04-25T03:34:53;2.53;;;1.58;;
73382;SDS011;61600;48.126;11.542;2023-04-25T03:37:19;3.58;;;1.38;;
73382;SDS011;61600;48.126;11.542;2023-04-25T03:39:44;4.30;;;1.60;;
73382;SDS011;61600;48.126;11.542;2023-04-25T03:42:10;5.07;;;1.67;;
73382;SDS011;61600;48.126;11.542;2023-04-25T03:44:36;2.88;;;1.60;;
73382;SDS011;61600;48.126;11.542;2023-04-25T03:47:01;2.25;;;1.25;;
73382;SDS011;61600;48.126;11.542;2023-04-25T03:49:27;1.85;;;1.25;;
73382;SDS011;61600;48.126;11.542;2023-04-25T03:51:53;1.67;;;1.00;;
73382;SDS011;61600;48.126;11.542;2023-04-25T03:54:19;3.10;;;1.00;;
73382;SDS011;61600;48.126;11.542;2023-04-25T03:56:44;3.30;;;1.40;;
73382;SDS011;61600;48.126;11.542;2023-04-25T03:59:10;2.65;;;1.38;;
73382;SDS011;61600;48.126;11.542;2023-04-25T04:01:36;4.82;;;1.30;;
73382;SDS011;61600;48.126;11.542;2023-04-25T04:04:02;2.08;;;1.30;;
73382;SDS011;61600;48.126;11.542;2023-04-25T04:06:28;3.95;;;1.40;;
73382;SDS011;61600;48.126;11.542;2023-04-25T04:08:54;2.33;;;1.23;;
73382;SDS011;61600;48.126;11.542;2023-04-25T04:11:20;2.58;;;1.27;;
73382;SDS011;61600;48.126;11.542;2023-04-25T04:13:46;1.73;;;1.00;;
73382;SDS011;61600;48.126;11.542;2023-04-25T04:16:12;2.47;;;1.20;;
73382;SDS011;61600;48.126;11.542;2023-04-25T04:18:38;2.45;;;1.13;;
73382;SDS011;61600;48.126;11.542;2023-04-25T04:21:04;2.10;;;1.23;;
73382;SDS011;61600;48.126;11.542;2023-04-25T04:23:29;1.73;;;1.10;;
73382;SDS011;61600;48.126;11.542;2023-04-25T04:25:55;3.00;;;1.40;;
73382;SDS011;61600;48.126;11.542;2023-04-25T04:28:21;2.85;;;1.13;;
73382;SDS011;61600;48.126;11.542;2023-04-25T04:30:47;2.60;;;1.17;;
73382;SDS011;61600;48.126;11.542;2023-04-25T04:33:13;2.90;;;1.20;;
73382;SDS011;61600;48.126;11.542;2023-04-25T04:35:40;3.53;;;1.20;;
73382;SDS011;61600;48.126;11.542;2023-04-25T04:38:07;3.08;;;1.10;;
73382;SDS011;61600;48.126;11.542;2023-04-25T04:40:32;2.58;;;1.00;;
73382;SDS011;61600;48.126;11.542;2023-04-25T04:42:58;2.22;;;1.10;;
73382;SDS011;61600;48.126;11.542;2023-04-25T04:45:24;2.80;;;1.50;;
73382;SDS011;61600;48.126;11.542;2023-04-25T04:47:50;3.15;;;1.40;;
73382;SDS011;61600;48.126;11.542;2023-04-25T04:50:16;5.13;;;1.40;;
73382;SDS011;61600;48.126;11.542;2023-04-25T04:52:42;2.80;;;1.20;;
73382;SDS011;61600;48.126;11.542;2023-04-25T04:55:08;3.60;;;1.45;;
73382;SDS011;61600;48.126;11.542;2023-04-25T04:57:34;3.72;;;1.48;;
73382;SDS011;61600;48.126;11.542;2023-04-25T05:00:00;3.85;;;1.67;;
73382;SDS011;61600;48.126;11.542;2023-04-25T05:02:26;4.53;;;1.70;;
73382;SDS011;61600;48.126;11.542;2023-04-25T05:04:52;2.88;;;1.65;;
73382;SDS011;61600;48.126;11.542;2023-04-25T05:07:18;2.60;;;1.50;;
73382;SDS011;61600;48.126;11.542;2023-04-25T05:09:44;3.47;;;1.90;;
73382;SDS011;61600;48.126;11.542;2023-04-25T05:12:10;4.30;;;1.58;;
73382;SDS011;61600;48.126;11.542;2023-04-25T05:14:36;4.80;;;2.00;;
73382;SDS011;61600;48.126;11.542;2023-04-25T05:17:03;4.25;;;1.33;;
73382;SDS011;61600;48.126;11.542;2023-04-25T05:19:33;2.40;;;1.30;;
73382;SDS011;61600;48.126;11.542;2023-04-25T05:22:00;3.80;;;1.48;;
73382;SDS011;61600;48.126;11.542;2023-04-25T05:24:25;3.20;;;1.30;;
73382;SDS011;61600;48.126;11.542;2023-04-25T05:26:51;4.85;;;1.67;;
73382;SDS011;61600;48.126;11.542;2023-04-25T05:29:17;6.00;;;1.52;;
73382;SDS011;61600;48.126;11.542;2023-04-25T05:31:43;3.22;;;1.35;;
73382;SDS011;61600;48.126;11.542;2023-04-25T05:34:10;3.60;;;1.75;;
73382;SDS011;61600;48.126;11.542;2023-04-25T05:36:40;3.28;;;1.60;;
73382;SDS011;61600;48.126;11.542;2023-04-25T05:39:06;2.47;;;1.42;;
73382;SDS011;61600;48.126;11.542;2023-04-25T05:41:33;4.63;;;1.70;;
73382;SDS011;61600;48.126;11.542;2023-04-25T05:43:59;3.95;;;1.80;;
73382;SDS011;61600;48.126;11.542;2023-04-25T05:46:26;5.22;;;2.28;;
73382;SDS011;61600;48.126;11.542;2023-04-25T05:48:52;2.85;;;1.92;;
73382;SDS011;61600;48.126;11.542;2023-04-25T05:51:18;5.00;;;1.85;;
73382;SDS011;61600;48.126;11.542;2023-04-25T05:53:44;6.07;;;2.22;;
73382;SDS011;61600;48.126;11.542;2023-04-25T05:56:10;3.63;;;1.70;;
73382;SDS011;61600;48.126;11.542;2023-04-25T05:58:36;3.10;;;1.60;;
73382;SDS011;61600;48.126;11.542;2023-04-25T06:01:02;3.33;;;1.20;;
73382;SDS011;61600;48.126;11.542;2023-04-25T06:03:28;4.35;;;2.00;;
73382;SDS011;61600;48.126;11.542;2023-04-25T06:05:55;2.50;;;1.50;;
73382;SDS011;61600;48.126;11.542;2023-04-25T06:08:21;5.50;;;2.00;;
73382;SDS011;61600;48.126;11.542;2023-04-25T06:10:47;2.17;;;1.10;;
73382;SDS011;61600;48.126;11.542;2023-04-25T06:13:13;2.95;;;1.05;;
73382;SDS011;61600;48.126;11.542;2023-04-25T06:15:39;3.10;;;1.33;;
73382;SDS011;61600;48.126;11.542;2023-04-25T06:18:06;5.10;;;1.70;;
73382;SDS011;61600;48.126;11.542;2023-04-25T06:20:32;5.97;;;2.33;;
73382;SDS011;61600;48.126;11.542;2023-04-25T06:22:58;5.47;;;2.03;;
73382;SDS011;61600;48.126;11.542;2023-04-25T06:25:24;3.92;;;2.17;;
73382;SDS011;61600;48.126;11.542;2023-04-25T06:27:50;5.88;;;3.00;;
73382;SDS011;61600;48.126;11.542;2023-04-25T06:30:15;9.43;;;3.10;;
73382;SDS011;61600;48.126;11.542;2023-04-25T06:32:43;4.47;;;2.47;;
73382;SDS011;61600;48.126;11.542;2023-04-25T06:35:09;5.68;;;2.40;;
73382;SDS011;61600;48.126;11.542;2023-04-25T06:37:35;5.88;;;3.00;;
73382;SDS011;61600;48.126;11.542;2023-04-25T06:40:01;5.85;;;2.85;;
73382;SDS011;61600;48.126;11.542;2023-04-25T06:42:27;3.45;;;2.03;;
73382;SDS011;61600;48.126;11.542;2023-04-25T06:44:53;5.15;;;1.98;;
73382;SDS011;61600;48.126;11.542;2023-04-25T06:47:19;6.85;;;2.42;;
73382;SDS011;61600;48.126;11.542;2023-04-25T06:49:45;7.05;;;2.88;;
73382;SDS011;61600;48.126;11.542;2023-04-25T06:52:11;5.13;;;2.38;;
73382;SDS011;61600;48.126;11.542;2023-04-25T06:54:37;6.25;;;2.78;;
73382;SDS011;61600;48.126;11.542;2023-04-25T06:57:03;7.38;;;2.90;;
73382;SDS011;61600;48.126;11.542;2023-04-25T06:59:28;5.95;;;3.08;;
73382;SDS011;61600;48.126;11.542;2023-04-25T07:01:54;5.78;;;2.60;;
73382;SDS011;61600;48.126;11.542;2023-04-25T07:04:20;4.00;;;2.13;;
73382;SDS011;61600;48.126;11.542;2023-04-25T07:06:46;4.50;;;2.72;;
73382;SDS011;61600;48.126;11.542;2023-04-25T07:09:13;7.18;;;2.40;;
73382;SDS011;61600;48.126;11.542;2023-04-25T07:11:39;7.75;;;2.80;;
73382;SDS011;61600;48.126;11.542;2023-04-25T07:14:05;5.10;;;2.35;;
73382;SDS011;61600;48.126;11.542;2023-04-25T07:16:30;4.20;;;2.72;;
73382;SDS011;61600;48.126;11.542;2023-04-25T07:18:56;8.05;;;3.08;;
73382;SDS011;61600;48.126;11.542;2023-04-25T07:21:22;8.13;;;2.60;;
73382;SDS011;61600;48.126;11.542;2023-04-25T07:23:48;3.75;;;1.92;;
73382;SDS011;61600;48.126;11.542;2023-04-25T07:26:14;5.47;;;2.33;;
73382;SDS011;61600;48.126;11.542;2023-04-25T07:28:39;7.05;;;3.00;;
73382;SDS011;61600;48.126;11.542;2023-04-25T07:31:05;5.75;;;2.65;;
73382;SDS011;61600;48.126;11.542;2023-04-25T07:33:31;7.20;;;1.98;;
73382;SDS011;61600;48.126;11.542;2023-04-25T07:35:57;3.83;;;2.10;;
73382;SDS011;61600;48.126;11.542;2023-04-25T07:38:23;5.20;;;2.60;;
73382;SDS011;61600;48.126;11.542;2023-04-25T07:40:49;3.20;;;2.17;;
73382;SDS011;61600;48.126;11.542;2023-04-25T07:43:15;4.65;;;2.30;;
73382;SDS011;61600;48.126;11.542;2023-04-25T07:45:42;4.75;;;2.38;;
73382;SDS011;61600;48.126;11.542;2023-04-25T07:48:09;7.97;;;3.17;;
73382;SDS011;61600;48.126;11.542;2023-04-25T07:50:35;6.40;;;3.13;;
73382;SDS011;61600;48.126;11.542;2023-04-25T07:53:01;5.57;;;2.75;;
73382;SDS011;61600;48.126;11.542;2023-04-25T07:55:27;7.32;;;2.60;;
73382;SDS011;61600;48.126;11.542;2023-04-25T07:57:53;6.50;;;2.83;;
73382;SDS011;61600;48.126;11.542;2023-04-25T08:00:19;8.63;;;2.88;;
73382;SDS011;61600;48.126;11.542;2023-04-25T08:02:45;6.50;;;2.70;;
73382;SDS011;61600;48.126;11.542;2023-04-25T08:05:11;9.52;;;3.45;;
73382;SDS011;61600;48.126;11.542;2023-04-25T08:07:40;5.60;;;2.70;;
73382;SDS011;61600;48.126;11.542;2023-04-25T08:10:07;5.68;;;2.85;;
73382;SDS011;61600;48.126;11.542;2023-04-25T08:12:33;5.72;;;2.47;;
73382;SDS011;61600;48.126;11.542;2023-04-25T08:14:59;5.25;;;2.63;;
73382;SDS011;61600;48.126;11.542;2023-04-25T08:17:25;6.90;;;2.63;;
73382;SDS011;61600;48.126;11.542;2023-04-25T08:19:51;5.43;;;2.30;;
73382;SDS011;61600;48.126;11.542;2023-04-25T08:22:17;6.28;;;2.80;;
73382;SDS011;61600;48.126;11.542;2023-04-25T08:24:43;8.07;;;3.10;;
73382;SDS011;61600;48.126;11.542;2023-04-25T08:27:08;7.68;;;2.90;;
73382;SDS011;61600;48.126;11.542;2023-04-25T08:29:35;5.35;;;2.58;;
73382;SDS011;61600;48.126;11.542;2023-04-25T08:32:00;4.03;;;2.00;;
73382;SDS011;61600;48.126;11.542;2023-04-25T08:34:26;4.93;;;2.20;;
73382;SDS011;61600;48.126;11.542;2023-04-25T08:36:52;6.18;;;2.38;;
73382;SDS011;61600;48.126;11.542;2023-04-25T08:39:18;4.95;;;2.13;;
73382;SDS011;61600;48.126;11.542;2023-04-25T08:41:44;6.10;;;2.40;;
73382;SDS011;61600;48.126;11.542;2023-04-25T08:44:20;4.05;;;2.03;;
73382;SDS011;61600;48.126;11.542;2023-04-25T08:46:46;9.20;;;2.10;;
73382;SDS011;61600;48.126;11.542;2023-04-25T08:49:15;4.95;;;2.00;;
73382;SDS011;61600;48.126;11.542;2023-04-25T08:51:46;7.05;;;2.35;;
73382;SDS011;61600;48.126;11.542;2023-04-25T08:54:13;5.93;;;1.98;;
73382;SDS011;61600;48.126;11.542;2023-04-25T08:56:46;3.20;;;1.38;;
73382;SDS011;61600;48.126;11.542;2023-04-25T08:59:13;2.45;;;1.23;;
73382;SDS011;61600;48.126;11.542;2023-04-25T09:01:39;1.90;;;1.15;;
73382;SDS011;61600;48.126;11.542;2023-04-25T09:04:06;1.65;;;0.90;;
73382;SDS011;61600;48.126;11.542;2023-04-25T09:06:35;4.65;;;1.40;;
73382;SDS011;61600;48.126;11.542;2023-04-25T09:09:04;2.88;;;1.58;;
73382;SDS011;61600;48.126;11.542;2023-04-25T09:11:35;2.08;;;1.10;;
73382;SDS011;61600;48.126;11.542;2023-04-25T09:19:25;2.03;;;1.30;;
73382;SDS011;61600;48.126;11.542;2023-04-25T09:21:56;4.30;;;1.58;;
73382;SDS011;61600;48.126;11.542;2023-04-25T09:27:08;4.55;;;1.50;;
73382;SDS011;61600;48.126;11.542;2023-04-25T09:29:36;3.83;;;1.42;;
73382;SDS011;61600;48.126;11.542;2023-04-25T09:32:13;5.05;;;1.25;;
73382;SDS011;61600;48.126;11.542;2023-04-25T09:34:48;2.47;;;1.35;;
73382;SDS011;61600;48.126;11.542;2023-04-25T09:37:23;5.40;;;1.60;;
73382;SDS011;61600;48.126;11.542;2023-04-25T09:39:54;2.10;;;1.10;;
73382;SDS011;61600;48.126;11.542;2023-04-25T09:42:22;2.05;;;1.45;;
73382;SDS011;61600;48.126;11.542;2023-04-25T09:44:56;4.13;;;2.08;;
73382;SDS011;61600;48.126;11.542;2023-04-25T09:47:24;3.83;;;1.88;;
73382;SDS011;61600;48.126;11.542;2023-04-25T09:49:52;3.30;;;1.50;;
73382;SDS011;61600;48.126;11.542;2023-04-25T09:52:19;4.25;;;1.65;;
73382;SDS011;61600;48.126;11.542;2023-04-25T09:54:47;2.85;;;1.23;;
73382;SDS011;61600;48.126;11.542;2023-04-25T09:57:15;3.05;;;1.40;;
73382;SDS011;61600;48.126;11.542;2023-04-25T09:59:43;3.80;;;1.40;;
73382;SDS011;61600;48.126;11.542;2023-04-25T10:02:14;3.67;;;1.38;;
73382;SDS011;61600;48.126;11.542;2023-04-25T10:04:41;2.67;;;1.20;;
73382;SDS011;61600;48.126;11.542;2023-04-25T10:07:09;3.03;;;1.33;;
73382;SDS011;61600;48.126;11.542;2023-04-25T10:09:38;3.83;;;1.00;;
73382;SDS011;61600;48.126;11.542;2023-04-25T10:12:06;3.00;;;1.35;;
73382;SDS011;61600;48.126;11.542;2023-04-25T10:14:33;3.67;;;1.20;;
73382;SDS011;61600;48.126;11.542;2023-04-25T10:17:00;3.88;;;1.60;;
73382;SDS011;61600;48.126;11.542;2023-04-25T10:19:26;4.35;;;2.05;;
73382;SDS011;61600;48.126;11.542;2023-04-25T10:21:58;3.60;;;1.70;;
73382;SDS011;61600;48.126;11.542;2023-04-25T10:24:54;2.53;;;1.30;;
73382;SDS011;61600;48.126;11.542;2023-04-25T10:27:21;4.00;;;1.42;;
73382;SDS011;61600;48.126;11.542;2023-04-25T10:29:59;2.00;;;1.30;;
73382;SDS011;61600;48.126;11.542;2023-04-25T10:32:33;2.83;;;1.40;;
73382;SDS011;61600;48.126;11.542;2023-04-25T10:35:09;2.42;;;1.30;;
73382;SDS011;61600;48.126;11.542;2023-04-25T10:40:37;1.67;;;1.00;;
73382;SDS011;61600;48.126;11.542;2023-04-25T10:45:57;2.42;;;1.20;;
73382;SDS011;61600;48.126;11.542;2023-04-25T10:48:27;2.38;;;1.08;;
73382;SDS011;61600;48.126;11.542;2023-04-25T10:51:10;3.70;;;1.10;;
73382;SDS011;61600;48.126;11.542;2023-04-25T10:53:36;2.10;;;0.93;;
73382;SDS011;61600;48.126;11.542;2023-04-25T10:56:22;2.47;;;1.13;;
73382;SDS011;61600;48.126;11.542;2023-04-25T10:58:50;1.48;;;1.02;;
73382;SDS011;61600;48.126;11.542;2023-04-25T11:01:19;2.67;;;1.20;;
73382;SDS011;61600;48.126;11.542;2023-04-25T11:03:46;3.00;;;1.45;;
73382;SDS011;61600;48.126;11.542;2023-04-25T11:08:57;1.83;;;1.27;;
73382;SDS011;61600;48.126;11.542;2023-04-25T11:11:26;2.85;;;1.90;;
73382;SDS011;61600;48.126;11.542;2023-04-25T11:13:55;3.42;;;1.30;;
73382;SDS011;61600;48.126;11.542;2023-04-25T11:16:23;2.15;;;1.02;;
73382;SDS011;61600;48.126;11.542;2023-04-25T11:18:50;2.90;;;1.25;;
73382;SDS011;61600;48.126;11.542;2023-04-25T11:21:22;2.08;;;1.00;;
73382;SDS011;61600;48.126;11.542;2023-04-25T11:23:48;2.10;;;1.17;;
73382;SDS011;61600;48.126;11.542;2023-04-25T11:26:14;2.25;;;0.85;;
73382;SDS011;61600;48.126;11.542;2023-04-25T11:28:40;2.40;;;0.90;;
73382;SDS011;61600;48.126;11.542;2023-04-25T11:31:10;2.38;;;0.80;;
73382;SDS011;61600;48.126;11.542;2023-04-25T11:33:35;3.08;;;1.00;;
73382;SDS011;61600;48.126;11.542;2023-04-25T11:36:01;1.92;;;0.93;;
73382;SDS011;61600;48.126;11.542;2023-04-25T11:38:27;2.60;;;1.10;;
73382;SDS011;61600;48.126;11.542;2023-04-25T11:40:53;1.83;;;0.95;;
73382;SDS011;61600;48.126;11.542;2023-04-25T11:43:20;1.80;;;0.85;;
73382;SDS011;61600;48.126;11.542;2023-04-25T11:45:51;2.00;;;1.27;;
73382;SDS011;61600;48.126;11.542;2023-04-25T11:48:18;3.22;;;1.30;;
73382;SDS011;61600;48.126;11.542;2023-04-25T11:50:44;2.42;;;1.15;;
73382;SDS011;61600;48.126;11.542;2023-04-25T11:53:11;2.08;;;1.33;;
73382;SDS011;61600;48.126;11.542;2023-04-25T11:55:37;4.63;;;1.90;;
73382;SDS011;61600;48.126;11.542;2023-04-25T11:58:03;2.30;;;1.55;;
73382;SDS011;61600;48.126;11.542;2023-04-25T12:00:30;3.38;;;1.13;;
73382;SDS011;61600;48.126;11.542;2023-04-25T12:02:56;1.58;;;0.82;;
73382;SDS011;61600;48.126;11.542;2023-04-25T12:05:24;5.28;;;1.02;;
73382;SDS011;61600;48.126;11.542;2023-04-25T12:07:54;3.65;;;0.85;;
73382;SDS011;61600;48.126;11.542;2023-04-25T12:10:21;2.72;;;1.08;;
73382;SDS011;61600;48.126;11.542;2023-04-25T12:12:47;2.22;;;0.80;;
73382;SDS011;61600;48.126;11.542;2023-04-25T12:15:18;0.93;;;0.68;;
73382;SDS011;61600;48.126;11.542;2023-04-25T12:17:50;2.42;;;1.08;;
73382;SDS011;61600;48.126;11.542;2023-04-25T12:20:18;1.08;;;0.47;;
73382;SDS011;61600;48.126;11.542;2023-04-25T12:22:46;1.92;;;1.10;;
73382;SDS011;61600;48.126;11.542;2023-04-25T12:25:33;3.95;;;1.17;;
73382;SDS011;61600;48.126;11.542;2023-04-25T12:31:18;1.73;;;0.90;;
73382;SDS011;61600;48.126;11.542;2023-04-25T12:33:37;2.78;;;1.05;;
73382;SDS011;61600;48.126;11.542;2023-04-25T12:36:05;2.33;;;1.15;;
73382;SDS011;61600;48.126;11.542;2023-04-25T12:38:39;1.35;;;0.80;;
73382;SDS011;61600;48.126;11.542;2023-04-25T12:41:07;2.15;;;1.00;;
73382;SDS011;61600;48.126;11.542;2023-04-25T12:43:33;2.53;;;0.80;;
73382;SDS011;61600;48.126;11.542;2023-04-25T12:46:00;1.80;;;0.80;;
73382;SDS011;61600;48.126;11.542;2023-04-25T12:48:26;1.15;;;0.80;;
73382;SDS011;61600;48.126;11.542;2023-04-25T12:50:52;1.27;;;0.82;;
73382;SDS011;61600;48.126;11.542;2023-04-25T12:53:18;2.70;;;1.10;;
73382;SDS011;61600;48.126;11.542;2023-04-25T12:58:15;1.05;;;0.55;;
73382;SDS011;61600;48.126;11.542;2023-04-25T13:00:43;1.58;;;0.88;;
73382;SDS011;61600;48.126;11.542;2023-04-25T13:03:09;2.65;;;1.00;;
73382;SDS011;61600;48.126;11.542;2023-04-25T13:05:36;1.40;;;0.68;;
73382;SDS011;61600;48.126;11.542;2023-04-25T13:08:03;1.52;;;0.90;;
73382;SDS011;61600;48.126;11.542;2023-04-25T13:10:29;2.30;;;0.70;;
73382;SDS011;61600;48.126;11.542;2023-04-25T13:12:55;1.15;;;0.60;;
73382;SDS011;61600;48.126;11.542;2023-04-25T13:15:21;1.80;;;0.57;;
73382;SDS011;61600;48.126;11.542;2023-04-25T13:17:48;2.15;;;0.88;;
73382;SDS011;61600;48.126;11.542;2023-04-25T13:20:14;1.10;;;0.70;;
73382;SDS011;61600;48.126;11.542;2023-04-25T13:22:41;1.92;;;0.88;;
73382;SDS011;61600;48.126;11.542;2023-04-25T13:25:08;3.70;;;0.77;;
73382;SDS011;61600;48.126;11.542;2023-04-25T13:27:34;2.22;;;0.65;;
73382;SDS011;61600;48.126;11.542;2023-04-25T13:30:04;1.98;;;0.82;;
73382;SDS011;61600;48.126;11.542;2023-04-25T13:32:36;3.08;;;1.00;;
73382;SDS011;61600;48.126;11.542;2023-04-25T13:35:03;3.75;;;1.77;;
73382;SDS011;61600;48.126;11.542;2023-04-25T13:37:39;2.70;;;1.00;;
73382;SDS011;61600;48.126;11.542;2023-04-25T13:40:06;1.55;;;0.80;;
73382;SDS011;61600;48.126;11.542;2023-04-25T13:42:35;1.90;;;0.93;;
73382;SDS011;61600;48.126;11.542;2023-04-25T13:45:02;2.75;;;1.17;;
73382;SDS011;61600;48.126;11.542;2023-04-25T13:47:28;4.07;;;1.05;;
73382;SDS011;61600;48.126;11.542;2023-04-25T13:49:55;0.90;;;0.80;;
73382;SDS011;61600;48.126;11.542;2023-04-25T13:52:22;2.03;;;1.00;;
73382;SDS011;61600;48.126;11.542;2023-04-25T13:54:49;1.30;;;0.90;;
73382;SDS011;61600;48.126;11.542;2023-04-25T13:57:16;1.45;;;0.77;;
73382;SDS011;61600;48.126;11.542;2023-04-25T13:59:42;1.15;;;0.73;;
73382;SDS011;61600;48.126;11.542;2023-04-25T14:02:08;2.05;;;0.88;;
73382;SDS011;61600;48.126;11.542;2023-04-25T14:04:34;1.92;;;0.98;;
73382;SDS011;61600;48.126;11.542;2023-04-25T14:07:01;0.65;;;0.50;;
73382;SDS011;61600;48.126;11.542;2023-04-25T14:09:30;1.35;;;0.70;;
73382;SDS011;61600;48.126;11.542;2023-04-25T14:11:56;1.88;;;1.10;;
73382;SDS011;61600;48.126;11.542;2023-04-25T14:14:22;0.73;;;0.50;;
73382;SDS011;61600;48.126;11.542;2023-04-25T14:16:49;2.65;;;1.23;;
73382;SDS011;61600;48.126;11.542;2023-04-25T14:19:16;0.80;;;0.50;;
73382;SDS011;61600;48.126;11.542;2023-04-25T14:21:45;2.30;;;0.77;;
73382;SDS011;61600;48.126;11.542;2023-04-25T14:24:13;0.50;;;0.50;;
73382;SDS011;61600;48.126;11.542;2023-04-25T14:26:39;0.45;;;0.40;;
73382;SDS011;61600;48.126;11.542;2023-04-25T14:29:06;1.02;;;0.70;;
73382;SDS011;61600;48.126;11.542;2023-04-25T14:31:34;0.82;;;0.73;;
73382;SDS011;61600;48.126;11.542;2023-04-25T14:34:01;4.45;;;0.68;;
73382;SDS011;61600;48.126;11.542;2023-04-25T14:36:30;0.85;;;0.65;;
73382;SDS011;61600;48.126;11.542;2023-04-25T14:38:57;2.33;;;0.90;;
73382;SDS011;61600;48.126;11.542;2023-04-25T14:41:24;2.33;;;1.05;;
73382;SDS011;61600;48.126;11.542;2023-04-25T14:43:51;4.22;;;0.90;;
73382;SDS011;61600;48.126;11.542;2023-04-25T14:46:22;2.55;;;0.80;;
73382;SDS011;61600;48.126;11.542;2023-04-25T14:48:48;1.65;;;0.82;;
73382;SDS011;61600;48.126;11.542;2023-04-25T14:51:14;0.98;;;0.70;;
73382;SDS011;61600;48.126;11.542;2023-04-25T14:53:41;2.47;;;1.10;;
73382;SDS011;61600;48.126;11.542;2023-04-25T14:56:07;2.67;;;0.70;;